Time;durP1;ratioP1;P1;durP2;ratioP2;P2;SDS_P1;SDS_P2;PMS_P1;PMS_P2;Temp;Humidity;BMP_temperature;BMP_pressure;BME280_temperature;BME280_humidity;BME280_pressure;Samples;Min_cycle;Max_cycle;Signal;HPM_P1;HPM_P2
2022/06/27 00:00:47;;;;;;;2.80;0.50;;;17.80;99.90;;;;;;20721488;28;20051;-80
2022/06/27 00:10:48;;;;;;;2.72;0.60;;;17.80;99.90;;;;;;20714845;28;20137;-80
2022/06/27 00:20:49;;;;;;;3.42;0.80;;;17.80;99.90;;;;;;20693922;28;20042;-80
2022/06/27 00:30:50;;;;;;;2.28;0.80;;;17.80;99.90;;;;;;20716687;28;20466;-80
2022/06/27 00:40:52;;;;;;;1.02;0.65;;;17.80;99.90;;;;;;20705629;28;20079;-79
2022/06/27 00:50:53;;;;;;;1.40;0.60;;;17.80;99.90;;;;;;20704852;28;20042;-80
2022/06/27 01:00:54;;;;;;;3.53;0.98;;;17.80;99.90;;;;;;20720432;28;20041;-80
2022/06/27 01:10:55;;;;;;;3.15;0.60;;;17.80;99.90;;;;;;20733707;28;20038;-80
2022/06/27 01:20:56;;;;;;;1.60;0.70;;;17.70;99.90;;;;;;20708386;28;20048;-80
2022/06/27 01:30:57;;;;;;;1.17;0.60;;;17.70;99.90;;;;;;20721941;28;20033;-80
2022/06/27 01:40:58;;;;;;;1.90;0.70;;;17.70;99.90;;;;;;20726427;28;20046;-80
2022/06/27 01:51:01;;;;;;;2.47;0.63;;;17.60;99.90;;;;;;20700283;28;20045;-80
2022/06/27 02:01:04;;;;;;;1.90;0.60;;;17.70;99.90;;;;;;20718581;28;20134;-80
2022/06/27 02:11:05;;;;;;;1.85;0.65;;;17.60;99.90;;;;;;20694798;28;20045;-80
2022/06/27 02:21:12;;;;;;;2.00;0.82;;;17.50;99.90;;;;;;20705159;28;20030;-80
2022/06/27 02:31:13;;;;;;;2.83;0.90;;;17.50;99.90;;;;;;20724268;28;20045;-80
2022/06/27 02:41:16;;;;;;;2.20;0.88;;;17.50;99.90;;;;;;20675008;28;20046;-80
2022/06/27 02:51:22;;;;;;;2.90;0.98;;;17.40;99.90;;;;;;20630350;28;20583;-80
2022/06/27 03:01:24;;;;;;;1.73;0.80;;;17.40;99.90;;;;;;20654744;28;20545;-80
2022/06/27 03:11:25;;;;;;;1.73;0.95;;;17.10;99.90;;;;;;20617864;28;20054;-80
2022/06/27 03:21:26;;;;;;;2.53;0.93;;;17.10;99.90;;;;;;20638500;28;20551;-80
2022/06/27 03:31:28;;;;;;;2.60;0.90;;;17.10;99.90;;;;;;20645327;28;20065;-80
2022/06/27 03:41:29;;;;;;;2.88;0.82;;;16.90;99.90;;;;;;20637967;28;20053;-80
2022/06/27 03:51:30;;;;;;;2.65;0.88;;;16.80;99.90;;;;;;20627174;28;20048;-80
2022/06/27 04:01:31;;;;;;;3.90;1.10;;;16.80;99.90;;;;;;20649094;28;20048;-80
2022/06/27 04:11:33;;;;;;;1.30;0.50;;;16.70;99.90;;;;;;20625693;28;20041;-80
2022/06/27 04:21:34;;;;;;;2.35;1.00;;;16.70;99.90;;;;;;20635203;28;20046;-80
2022/06/27 04:31:35;;;;;;;1.98;0.88;;;16.70;99.90;;;;;;20636173;28;20065;-80
2022/06/27 04:41:37;;;;;;;2.58;1.15;;;16.80;99.90;;;;;;20623135;28;20433;-80
2022/06/27 04:51:39;;;;;;;3.03;1.33;;;16.90;99.90;;;;;;20614088;28;20409;-80
2022/06/27 05:01:40;;;;;;;5.13;1.17;;;17.00;99.90;;;;;;20634894;28;20437;-80
2022/06/27 05:11:44;;;;;;;6.28;1.17;;;17.00;99.90;;;;;;20655736;28;20554;-80
2022/06/27 05:21:46;;;;;;;4.25;1.08;;;17.10;99.90;;;;;;20655061;28;20041;-80
2022/06/27 05:31:47;;;;;;;2.75;1.27;;;17.10;99.90;;;;;;20646540;28;20037;-80
2022/06/27 05:41:53;;;;;;;2.53;1.00;;;17.20;99.90;;;;;;20622838;28;20049;-80
2022/06/27 05:51:57;;;;;;;3.33;1.65;;;17.30;99.90;;;;;;20661053;28;20038;-80
2022/06/27 06:02:00;;;;;;;2.72;1.20;;;17.30;99.90;;;;;;20651977;28;20371;-80
2022/06/27 06:12:06;;;;;;;3.40;1.27;;;17.50;99.90;;;;;;20625719;28;20045;-80
2022/06/27 06:22:08;;;;;;;4.10;1.65;;;17.50;99.90;;;;;;20629599;28;20045;-80
2022/06/27 06:32:09;;;;;;;4.05;1.58;;;17.60;99.90;;;;;;20635301;28;20053;-80
2022/06/27 06:42:11;;;;;;;3.75;1.90;;;17.60;99.90;;;;;;20652687;28;20058;-80
2022/06/27 06:52:12;;;;;;;3.85;1.73;;;17.70;99.90;;;;;;20648050;28;20045;-80
2022/06/27 07:02:13;;;;;;;1.90;1.30;;;17.90;99.90;;;;;;20653267;28;20042;-79
2022/06/27 07:12:14;;;;;;;3.58;1.55;;;18.00;99.90;;;;;;20654477;28;20042;-80
2022/06/27 07:22:15;;;;;;;2.10;0.90;;;18.00;99.90;;;;;;20646910;28;20056;-80
2022/06/27 07:32:16;;;;;;;2.17;0.90;;;18.00;99.90;;;;;;20663998;28;20058;-79
2022/06/27 07:42:17;;;;;;;3.75;1.38;;;18.00;99.90;;;;;;20668359;28;20058;-80
2022/06/27 07:52:18;;;;;;;3.00;1.13;;;18.00;99.90;;;;;;20648906;28;20049;-80
2022/06/27 08:02:19;;;;;;;3.05;1.20;;;18.10;99.90;;;;;;20661474;28;20513;-79
2022/06/27 08:12:21;;;;;;;3.40;1.83;;;18.10;99.90;;;;;;20662134;28;20074;-82
2022/06/27 08:22:25;;;;;;;4.00;1.80;;;18.20;99.90;;;;;;20659736;28;20093;-79
2022/06/27 08:32:26;;;;;;;2.33;0.90;;;18.20;99.90;;;;;;20658131;28;20046;-80
2022/06/27 08:42:29;;;;;;;2.33;1.20;;;18.30;99.90;;;;;;20644334;28;20498;-80
2022/06/27 08:52:31;;;;;;;4.30;1.35;;;18.50;99.90;;;;;;20634952;28;20041;-79
2022/06/27 09:02:37;;;;;;;2.80;1.45;;;18.60;99.90;;;;;;20613122;28;20080;-79
2022/06/27 09:12:55;;;;;;;3.30;1.27;;;18.70;99.90;;;;;;20617452;28;20049;-79
2022/06/27 09:22:56;;;;;;;2.08;1.00;;;18.60;99.90;;;;;;20661450;28;20254;-79
2022/06/27 09:32:59;;;;;;;2.22;0.90;;;18.70;99.90;;;;;;20648184;28;20049;-79
2022/06/27 09:43:01;;;;;;;10.98;2.40;;;18.60;99.90;;;;;;20660067;28;20061;-79
2022/06/27 09:53:03;;;;;;;2.70;1.17;;;18.60;99.90;;;;;;20659977;28;20041;-79
2022/06/27 10:03:05;;;;;;;3.13;1.55;;;18.70;99.90;;;;;;20681305;28;20569;-79
2022/06/27 10:13:11;;;;;;;2.40;0.80;;;18.60;99.90;;;;;;20663156;28;20513;-79
2022/06/27 10:23:13;;;;;;;2.90;1.43;;;18.70;99.90;;;;;;20645165;28;20699;-80
2022/06/27 10:33:41;;;;;;;12.55;1.98;;;18.70;99.90;;;;;;20637199;28;20100;-80
2022/06/27 10:43:54;;;;;;;3.93;1.90;;;18.80;99.90;;;;;;20731284;28;20056;-80
2022/06/27 10:54:04;;;;;;;3.20;1.40;;;18.80;99.90;;;;;;20766931;28;20044;-80
2022/06/27 11:04:06;;;;;;;3.63;1.40;;;18.90;99.90;;;;;;20769579;28;20262;-80
2022/06/27 11:14:08;;;;;;;1.77;0.93;;;18.80;99.90;;;;;;20740371;28;20048;-80
2022/06/27 11:24:11;;;;;;;3.00;1.50;;;18.90;99.90;;;;;;20744919;28;20038;-80
2022/06/27 11:34:14;;;;;;;3.38;1.13;;;19.00;99.90;;;;;;20755272;28;20071;-80
2022/06/27 11:44:15;;;;;;;2.00;1.02;;;19.30;99.90;;;;;;20736372;28;20038;-79
2022/06/27 11:54:19;;;;;;;1.83;0.75;;;19.40;99.90;;;;;;20753356;28;20505;-79
2022/06/27 12:04:31;;;;;;;1.52;0.90;;;19.30;99.90;;;;;;20736835;28;20501;-79
2022/06/27 12:14:44;;;;;;;3.90;1.90;;;19.20;99.90;;;;;;20735234;28;20049;-79
2022/06/27 12:24:45;;;;;;;2.53;1.25;;;19.20;99.90;;;;;;20713217;28;20482;-79
2022/06/27 12:34:48;;;;;;;2.70;1.65;;;19.20;99.90;;;;;;20729096;28;20061;-79
2022/06/27 12:44:49;;;;;;;1.73;0.50;;;19.10;99.90;;;;;;20704039;28;20040;-79
2022/06/27 12:54:51;;;;;;;1.33;0.57;;;18.80;99.90;;;;;;20747851;28;20053;-80
2022/06/27 13:04:52;;;;;;;1.35;0.80;;;18.30;99.90;;;;;;20745151;28;20404;-80
2022/06/27 13:14:53;;;;;;;2.08;0.75;;;17.80;99.90;;;;;;20736687;28;20038;-80
2022/06/27 13:24:54;;;;;;;2.30;1.33;;;17.40;99.90;;;;;;20728990;28;20079;-80
2022/06/27 13:34:57;;;;;;;2.22;1.20;;;17.50;99.90;;;;;;20697446;28;20057;-80
2022/06/27 13:44:58;;;;;;;1.33;0.55;;;17.30;99.90;;;;;;20716410;28;20053;-80
2022/06/27 13:54:59;;;;;;;0.98;0.22;;;16.40;99.90;;;;;;20716708;28;20484;-79
2022/06/27 14:05:00;;;;;;;1.00;0.40;;;15.60;99.90;;;;;;20705216;28;20045;-79
2022/06/27 14:15:04;;;;;;;1.08;0.47;;;15.20;99.90;;;;;;20723139;28;20041;-79
2022/06/27 14:25:05;;;;;;;2.08;0.60;;;15.10;99.90;;;;;;20655314;28;20049;-79
2022/06/27 14:35:07;;;;;;;1.52;0.68;;;15.20;99.90;;;;;;20635154;28;20042;-79
2022/06/27 14:45:08;;;;;;;2.35;0.68;;;15.30;99.90;;;;;;20640689;28;20034;-79
2022/06/27 14:55:11;;;;;;;1.40;0.73;;;15.50;99.90;;;;;;20651863;28;20500;-78
2022/06/27 15:05:12;;;;;;;2.35;1.10;;;15.50;99.90;;;;;;20640967;28;20057;-79
2022/06/27 15:15:14;;;;;;;1.77;0.70;;;15.80;99.90;;;;;;20655945;28;20417;-79
2022/06/27 15:25:15;;;;;;;5.05;1.30;;;16.10;99.90;;;;;;20673106;28;20062;-80
2022/06/27 15:35:16;;;;;;;1.52;0.77;;;16.40;99.90;;;;;;20647594;28;20056;-79
2022/06/27 15:45:17;;;;;;;2.17;0.90;;;16.40;99.90;;;;;;20656480;28;20042;-80
2022/06/27 15:55:19;;;;;;;3.25;1.42;;;16.40;99.90;;;;;;20670643;28;20425;-80
2022/06/27 16:05:23;;;;;;;6.25;0.75;;;16.50;99.90;;;;;;20653282;28;20049;-79
2022/06/27 16:15:24;;;;;;;1.70;0.77;;;16.70;99.90;;;;;;20667006;28;20486;-79
2022/06/27 16:25:35;;;;;;;;;;;;;;;;;;;;;
2022/06/27 16:35:57;;;;;;;3.17;0.70;;;17.10;99.90;;;;;;20532250;28;20058;-79
2022/06/27 16:45:58;;;;;;;0.93;0.43;;;17.30;99.90;;;;;;20689387;28;20073;-79
2022/06/27 16:56:00;;;;;;;1.20;0.40;;;17.30;99.90;;;;;;20679517;28;20042;-79
2022/06/27 17:06:01;;;;;;;0.88;0.38;;;17.10;99.90;;;;;;20655254;28;20748;-79
2022/06/27 17:16:03;;;;;;;0.90;0.40;;;17.00;99.90;;;;;;20643002;28;20423;-79
2022/06/27 17:26:04;;;;;;;1.17;0.43;;;17.20;99.90;;;;;;20682866;28;20038;-79
2022/06/27 17:36:05;;;;;;;1.30;0.40;;;17.10;99.90;;;;;;20650582;28;20045;-80
2022/06/27 17:46:06;;;;;;;1.02;0.55;;;17.00;99.90;;;;;;20675409;28;20052;-79
2022/06/27 17:56:07;;;;;;;0.82;0.40;;;16.90;99.90;;;;;;20681120;28;20384;-80
2022/06/27 18:06:09;;;;;;;1.40;0.52;;;16.80;99.90;;;;;;20704631;28;20037;-79
2022/06/27 18:16:10;;;;;;;0.85;0.43;;;16.90;99.90;;;;;;20671160;28;20049;-80
2022/06/27 18:26:11;;;;;;;1.40;0.60;;;16.90;99.90;;;;;;20680098;28;20034;-79
2022/06/27 18:36:13;;;;;;;1.23;0.50;;;16.90;99.90;;;;;;20665880;28;20064;-79
2022/06/27 18:46:15;;;;;;;1.40;0.40;;;16.90;99.90;;;;;;20677408;28;20041;-78
2022/06/27 18:56:16;;;;;;;0.80;0.32;;;16.90;99.90;;;;;;20648657;28;20050;-79
2022/06/27 19:06:17;;;;;;;0.90;0.35;;;16.90;99.90;;;;;;20675927;28;20042;-79
2022/06/27 19:16:18;;;;;;;1.05;0.30;;;16.80;99.90;;;;;;20678940;28;20049;-79
2022/06/27 19:26:20;;;;;;;0.50;0.28;;;16.60;99.90;;;;;;20652405;28;20038;-80
2022/06/27 19:36:23;;;;;;;1.17;0.20;;;16.50;99.90;;;;;;20670527;28;20037;-79
2022/06/27 19:46:24;;;;;;;0.38;0.17;;;16.30;99.90;;;;;;20653291;28;20042;-80
2022/06/27 19:56:25;;;;;;;0.75;0.28;;;16.10;99.90;;;;;;20670678;28;21118;-80
2022/06/27 20:06:27;;;;;;;1.30;0.38;;;15.90;99.90;;;;;;20646791;28;20038;-80
2022/06/27 20:16:30;;;;;;;0.95;0.30;;;15.80;99.90;;;;;;20649193;28;20042;-80
2022/06/27 20:26:31;;;;;;;0.40;0.20;;;15.60;99.90;;;;;;20677738;28;20034;-81
2022/06/27 20:36:32;;;;;;;1.00;0.30;;;15.40;99.90;;;;;;20653211;28;20054;-80
2022/06/27 20:46:33;;;;;;;1.13;0.40;;;15.30;99.90;;;;;;20660985;28;20038;-81
2022/06/27 20:56:34;;;;;;;2.22;0.28;;;15.20;99.90;;;;;;20628742;28;20042;-82
2022/06/27 21:06:37;;;;;;;0.90;0.38;;;15.00;99.90;;;;;;20620081;28;20058;-82
2022/06/27 21:16:38;;;;;;;1.33;0.47;;;14.90;99.90;;;;;;20650653;28;20052;-81
2022/06/27 21:26:40;;;;;;;3.05;0.57;;;14.90;99.90;;;;;;20659116;28;20042;-81
2022/06/27 21:36:42;;;;;;;0.95;0.32;;;14.90;99.90;;;;;;20681712;28;20066;-82
2022/06/27 21:46:43;;;;;;;1.13;0.40;;;15.00;99.90;;;;;;20643993;28;20516;-81
2022/06/27 21:56:44;;;;;;;0.85;0.20;;;14.80;99.90;;;;;;20634206;28;20049;-81
2022/06/27 22:06:45;;;;;;;0.95;0.30;;;14.80;99.90;;;;;;20667934;28;20042;-82
2022/06/27 22:16:46;;;;;;;2.65;0.50;;;14.80;99.90;;;;;;20639076;28;20052;-82
2022/06/27 22:26:47;;;;;;;1.48;0.40;;;14.70;99.90;;;;;;20653237;28;20041;-81
2022/06/27 22:36:48;;;;;;;1.33;0.55;;;14.70;99.90;;;;;;20662075;28;20046;-82
2022/06/27 22:46:49;;;;;;;5.25;0.70;;;14.70;99.90;;;;;;20676933;28;20038;-81
2022/06/27 22:56:53;;;;;;;1.27;0.30;;;14.60;99.90;;;;;;20665564;28;20506;-81
2022/06/27 23:06:54;;;;;;;1.83;0.47;;;14.70;99.90;;;;;;20670122;28;20349;-81
2022/06/27 23:16:55;;;;;;;1.27;0.32;;;14.80;99.90;;;;;;20667635;28;20129;-81
2022/06/27 23:26:58;;;;;;;1.23;0.30;;;14.90;99.90;;;;;;20644704;28;20042;-81
2022/06/27 23:36:58;;;;;;;0.68;0.20;;;14.90;99.90;;;;;;20636291;28;20049;-81
2022/06/27 23:47:00;;;;;;;1.17;0.38;;;14.80;99.90;;;;;;20679913;28;20041;-81
2022/06/27 23:57:02;;;;;;;0.93;0.30;;;14.80;99.90;;;;;;20684303;28;20050;-81
